Αναφορές METAR

 

LGTS - Thessaloniki/Mik, Greece
Απόσταση από το σταθμό: ΝΝΔ 77km
Ενημερώθηκε: 22/05/2017 23:50
Μερικώς Νεφελώδης
Μερικώς Νεφελώδης
 Ανεμος από μεταβλητός
Ανεμος: μεταβλητός 4 km/h
Θερμοκρασία: 17°C
Σημείο Δρόσου: 15°C
Υγρασία: 88%
Βαρόμετρο: 1014 hPa
Νέφωση: Μερικώς Νεφελώδης
Ορατότητα: 10 km
Λεπτομέρειες νέφωσης: Μερικώς Νεφελώδης 914 m
2017/05/22 20:50 LGTS 222050Z VRB02KT 9999 SCT030 17/15 Q1014 NOSIG
LGKV - Kavala/Chrisoupo, Greece
Απόσταση από το σταθμό: ΑΝΑ 120km
Ενημερώθηκε: 22/05/2017 23:50
Διάσπαρτα Νέφη
Διάσπαρτα Νέφη
 Ανεμος από calm
Ανεμος: Απνοια
Θερμοκρασία: 17°C
Σημείο Δρόσου: 15°C
Υγρασία: 88%
Βαρόμετρο: 1013 hPa
Νέφωση: Διάσπαρτα Νέφη
Ορατότητα: 10 km
Λεπτομέρειες νέφωσης: Διάσπαρτα Νέφη 762 m
2017/05/22 20:50 LGKV 222050Z 00000KT 9999 FEW025 17/15 Q1013
 
LGKZ - Kozani (civ/Army, Greece
Απόσταση από το σταθμό: ΝΔ 154km
Ενημερώθηκε: 22/05/2017 20:50
ΜΗ ΠΡΟΣΦΑΤΟ METAR
Κυρίως Νεφελώδης
Κυρίως Νεφελώδης
 Ανεμος από ΒΔ
Ανεμος: ΒΔ 13 km/h
Θερμοκρασία: 19°C
Σημείο Δρόσου: 11°C
Υγρασία: 60%
Βαρόμετρο: 1015 hPa
Νέφωση: Κυρίως Νεφελώδης
Ορατότητα: 10 km
Λεπτομέρειες νέφωσης: Μερικώς Νεφελώδης 914 m
Κυρίως Νεφελώδης 2134 m
2017/05/22 17:50 LGKZ 221750Z 31007KT 9999 SCT030 BKN070 19/11 Q1015
LWSK - Skopje/Petrovac, Macedonia
Απόσταση από το σταθμό: ΔΒΔ 159km
Ενημερώθηκε: 23/05/2017 00:00
Αίθριος
Αίθριος
 Ανεμος από ΒΑ
Ανεμος: ΒΑ 11 km/h
Θερμοκρασία: 15°C
Σημείο Δρόσου: 11°C
Υγρασία: 77%
Βαρόμετρο: 1017 hPa
Summary: Αίθριος
Ορατότητα: greater than 10 km
2017/05/22 21:00 LWSK 222100Z 04006KT CAVOK 15/11 Q1017 NOSIG
 
LBSF - Sofia (observato, Bulgaria
Απόσταση από το σταθμό: Β 164km
Ενημερώθηκε: 23/05/2017 00:00
Αίθριος
Αίθριος
 Ανεμος από Δ
Ανεμος: Δ 11 km/h
Θερμοκρασία: 16°C
Σημείο Δρόσου: 13°C
Υγρασία: 83%
Βαρόμετρο: 1017 hPa
Summary: Αίθριος
Ορατότητα: greater than 10 km
2017/05/22 21:00 LBSF 222100Z 28006KT CAVOK 16/13 Q1017 NOSIG
LBPD - Plovdiv, Bulgaria
Απόσταση από το σταθμό: ΒΑ 168km
Ενημερώθηκε: 23/05/2017 00:00
Διάσπαρτα Νέφη
Διάσπαρτα Νέφη
 Ανεμος από ΝΝΑ
Ανεμος: ΝΝΑ 13 km/h
Θερμοκρασία: 16°C
Σημείο Δρόσου: 10°C
Υγρασία: 68%
Βαρόμετρο: 1015 hPa
Νέφωση: Διάσπαρτα Νέφη
Ορατότητα: 10 km
Λεπτομέρειες νέφωσης: Διάσπαρτα Νέφη 2713 m
2017/05/22 21:00 LBPD 222100Z AUTO 16007KT 9999 FEW089/// 16/10 Q1015
 
LWOH - Ohrid, Macedonia
Απόσταση από το σταθμό: Δ 204km
Ενημερώθηκε: 22/05/2017 21:30
ΜΗ ΠΡΟΣΦΑΤΟ METAR
Κυρίως Νεφελώδης
Κυρίως Νεφελώδης
 Ανεμος από ΒΒΔ
Ανεμος: ΒΒΔ 6 km/h
Θερμοκρασία: 16°C
Σημείο Δρόσου: 10°C
Υγρασία: 68%
Βαρόμετρο: 1016 hPa
Νέφωση: Κυρίως Νεφελώδης
Ορατότητα: 10 km
Λεπτομέρειες νέφωσης: Μερικώς Νεφελώδης 1219 m
Κυρίως Νεφελώδης 2743 m
2017/05/22 18:30 LWOH 221830Z 33003KT 9999 SCT040 BKN090 16/10 Q1016
LGLM - Limnos Island Ar, Greece
Απόσταση από το σταθμό: ΝΑ 220km
Ενημερώθηκε: 22/05/2017 23:50

 Ανεμος από μεταβλητός
Ανεμος: μεταβλητός 6 km/h
Θερμοκρασία: 14°C
Σημείο Δρόσου: 10°C
Υγρασία: 77%
Βαρόμετρο: 1014 hPa
2017/05/22 20:50 LGLM 222050Z AUTO VRB03KT //// // ////// 14/10 Q1014 RE//
 
LGBL - Nea Anchialos, Greece
Απόσταση από το σταθμό: Ν 221km
Ενημερώθηκε: 22/05/2017 23:50
Διάσπαρτα Νέφη
Διάσπαρτα Νέφη
 Ανεμος από Δ
Ανεμος: Δ 9 km/h
Θερμοκρασία: 19°C
Σημείο Δρόσου: 13°C
Υγρασία: 68%
Βαρόμετρο: 1014 hPa
Νέφωση: Διάσπαρτα Νέφη
Ορατότητα: 10 km
Λεπτομέρειες νέφωσης: Διάσπαρτα Νέφη 914 m
2017/05/22 20:50 LGBL 222050Z 27005KT 9999 FEW030 19/13 Q1014
LGSK - Skiathos Island, Greece
Απόσταση από το σταθμό: Ν 223km
Ενημερώθηκε: 22/05/2017 20:50
ΜΗ ΠΡΟΣΦΑΤΟ METAR
Διάσπαρτα Νέφη
Διάσπαρτα Νέφη
 Ανεμος από calm
Ανεμος: Απνοια
Θερμοκρασία: 22°C
Σημείο Δρόσου: 13°C
Υγρασία: 57%
Βαρόμετρο: 1012 hPa
Νέφωση: Διάσπαρτα Νέφη
Ορατότητα: 10 km
Λεπτομέρειες νέφωσης: Διάσπαρτα Νέφη 610 m
2017/05/22 17:50 LGSK 221750Z 00000KT 9999 FEW020 22/13 Q1012
 
LGAL - Alexandroupolis, Greece
Απόσταση από το σταθμό: Α 231km
Ενημερώθηκε: 22/05/2017 23:50
Μερικώς Νεφελώδης
Μερικώς Νεφελώδης
 Ανεμος από ΔΒΔ
Ανεμος: ΔΒΔ 9 km/h
Θερμοκρασία: 18°C
Σημείο Δρόσου: 13°C
Υγρασία: 73%
Βαρόμετρο: 1013 hPa
Νέφωση: Μερικώς Νεφελώδης
Ορατότητα: 10 km
Λεπτομέρειες νέφωσης: Διάσπαρτα Νέφη 762 m
Μερικώς Νεφελώδης 1829 m
2017/05/22 20:50 LGAL 222050Z 29005KT 9999 FEW025 SCT060 18/13 Q1013
BKPR - Prishtina, Yugoslavia
Απόσταση από το σταθμό: ΒΔ 240km
Ενημερώθηκε: 23/05/2017 00:00
Διάσπαρτα Νέφη
Διάσπαρτα Νέφη
 Ανεμος από calm
Ανεμος: Απνοια
Θερμοκρασία: 11°C
Σημείο Δρόσου: 8°C
Υγρασία: 82%
Βαρόμετρο: 1018 hPa
Νέφωση: Διάσπαρτα Νέφη
Ορατότητα: 10 km
Λεπτομέρειες νέφωσης: Διάσπαρτα Νέφη 1829 m
2017/05/22 21:00 BKPR 222100Z 00000KT 9999 FEW060 11/08 Q1018 NOSIG
 
LGIO - Ioannina, Greece
Απόσταση από το σταθμό: ΝΔ 262km
Ενημερώθηκε: 22/05/2017 22:20
ΜΗ ΠΡΟΣΦΑΤΟ METAR
Διάσπαρτα Νέφη
Διάσπαρτα Νέφη
 Ανεμος από μεταβλητός
Ανεμος: μεταβλητός 0 km/h
Θερμοκρασία: 15°C
Σημείο Δρόσου: 13°C
Υγρασία: 88%
Βαρόμετρο: 1017 hPa
Νέφωση: Διάσπαρτα Νέφη
Ορατότητα: 10 km
Λεπτομέρειες νέφωσης: Διάσπαρτα Νέφη 1219 m
2017/05/22 19:20 LGIO 221920Z /////KT 9999 FEW040 15/13 Q1017
LYNI - Nis, Yugoslavia
Απόσταση από το σταθμό: ΒΒΔ 262km
Ενημερώθηκε: 23/05/2017 00:00
Κυρίως Νεφελώδης
Κυρίως Νεφελώδης
 Ανεμος από μεταβλητός
Ανεμος: μεταβλητός 2 km/h
Θερμοκρασία: 16°C
Σημείο Δρόσου: 13°C
Υγρασία: 83%
Βαρόμετρο: 1017 hPa
Νέφωση: Κυρίως Νεφελώδης
Ορατότητα: 10 km
Λεπτομέρειες νέφωσης: Κυρίως Νεφελώδης 1006 m
2017/05/22 21:00 LYNI 222100Z VRB01KT 9999 BKN033 16/13 Q1017
 
LGSY - Skiros, Greece
Απόσταση από το σταθμό: ΝΝΑ 268km
Ενημερώθηκε: 22/05/2017 09:50
ΜΗ ΠΡΟΣΦΑΤΟ METAR
Αίθριος
Αίθριος
 Ανεμος από ΒΔ
Ανεμος: ΒΔ 15 km/h
Θερμοκρασία: 19°C
Σημείο Δρόσου: 13°C
Υγρασία: 68%
Βαρόμετρο: 1011 hPa
Summary: Αίθριος
Ορατότητα: greater than 10 km
2017/05/22 06:50 LGSY 220650Z 32008KT CAVOK 19/13 Q1011 RMK FEW180 BLU
LATI - Tirana, Albania
Απόσταση από το σταθμό: Δ 290km
Ενημερώθηκε: 22/05/2017 23:50
Κυρίως Νεφελώδης
Κυρίως Νεφελώδης
 Ανεμος από μεταβλητός
Ανεμος: μεταβλητός 4 km/h
Θερμοκρασία: 20°C
Σημείο Δρόσου: 16°C
Υγρασία: 78%
Βαρόμετρο: 1015 hPa
Νέφωση: Κυρίως Νεφελώδης
Ορατότητα: 10 km
Λεπτομέρειες νέφωσης: Μερικώς Νεφελώδης 2987 m
Κυρίως Νεφελώδης 3658 m
2017/05/22 20:50 LATI 222050Z VRB02KT 9999 SCT098 BKN120 20/16 Q1015 NOSIG
 
LBGO - Gorna Orechovist, Bulgaria
Απόσταση από το σταθμό: ΒΑ 300km
Ενημερώθηκε: 23/05/2017 00:00
Κυρίως Νεφελώδης
Κυρίως Νεφελώδης
 Ανεμος από Α
Ανεμος: Α 22 km/h
Θερμοκρασία: 16°C
Σημείο Δρόσου: 16°C
Υγρασία: 100%
Βαρόμετρο: 1015 hPa
Νέφωση: Κυρίως Νεφελώδης
Ορατότητα: 10 km
Λεπτομέρειες νέφωσης: Κυρίως Νεφελώδης 1646 m
Κυρίως Νεφελώδης 2408 m
2017/05/22 21:00 LBGO 222100Z AUTO 09012KT 9999 BKN054/// BKN079/// 16/16 Q1015
LGPZ - Preveza/Aktion, Greece
Απόσταση από το σταθμό: ΝΔ 328km
Ενημερώθηκε: 22/05/2017 23:50
Κυρίως Νεφελώδης
Κυρίως Νεφελώδης
 Ανεμος από ΔΝΔ
Ανεμος: ΔΝΔ 11 km/h
Θερμοκρασία: 19°C
Σημείο Δρόσου: 16°C
Υγρασία: 83%
Βαρόμετρο: 1015 hPa
Νέφωση: Κυρίως Νεφελώδης
Ορατότητα: 10 km
Λεπτομέρειες νέφωσης: Κυρίως Νεφελώδης 762 m
2017/05/22 20:50 LGPZ 222050Z 24006KT 9999 BKN025 19/16 Q1015
 
LGKR - Ioannis Kapodist, Greece
Απόσταση από το σταθμό: ΔΝΔ 330km
Ενημερώθηκε: 22/05/2017 23:50
Διάσπαρτα Νέφη
Διάσπαρτα Νέφη
 Ανεμος από calm
Ανεμος: Απνοια
Θερμοκρασία: 19°C
Σημείο Δρόσου: 15°C
Υγρασία: 78%
Βαρόμετρο: 1014 hPa
Νέφωση: Διάσπαρτα Νέφη
Ορατότητα: 10 km
Λεπτομέρειες νέφωσης: Διάσπαρτα Νέφη 914 m
2017/05/22 20:50 LGKR 222050Z 00000KT 9999 FEW030 19/15 Q1014 NOSIG
LGEL - Elefsis (hel-Afb, Greece
Απόσταση από το σταθμό: Ν 347km
Ενημερώθηκε: 22/05/2017 23:50
Διάσπαρτα Νέφη
Διάσπαρτα Νέφη
 Ανεμος από Β
Ανεμος: Β 7 km/h
Θερμοκρασία: 21°C
Σημείο Δρόσου: 7°C
Υγρασία: 40%
Βαρόμετρο: 1013 hPa
Νέφωση: Διάσπαρτα Νέφη
Ορατότητα: 10 km
Λεπτομέρειες νέφωσης: Διάσπαρτα Νέφη 762 m
2017/05/22 20:50 LGEL 222050Z 01004KT 9999 FEW025 21/07 Q1013


 ♦     ♦     ♦     Ποτέ μη βασίζετε κρίσιμες αποφάσεις σ'αυτές ή οποιεσδήποτε πληροφορίες καιρού από το Internet     ♦     ♦     ♦